Time;durP1;ratioP1;P1;durP2;ratioP2;P2;SDS_P1;SDS_P2;PMS_P1;PMS_P2;Temp;Humidity;BMP_temperature;BMP_pressure;BME280_temperature;BME280_humidity;BME280_pressure;Samples;Min_cycle;Max_cycle;Signal;HPM_P1;HPM_P2
2021/01/21 00:00:36;;;;;;;115.72;58.75;;;;;;;;;;5034039;28;20036;-71
2021/01/21 00:03:02;;;;;;;88.90;45.80;;;;;;;;;;5033839;28;20021;-71
2021/01/21 00:05:31;;;;;;;100.10;50.13;;;;;;;;;;5034189;28;20109;-71
2021/01/21 00:07:57;;;;;;;98.88;52.72;;;;;;;;;;5033638;28;20069;-71
2021/01/21 00:10:22;;;;;;;113.78;57.38;;;;;;;;;;5033226;28;20061;-71
2021/01/21 00:12:50;;;;;;;109.30;58.78;;;;;;;;;;5034120;28;20051;-72
2021/01/21 00:15:15;;;;;;;114.50;57.75;;;;;;;;;;5033826;28;20064;-71
2021/01/21 00:17:43;;;;;;;101.80;52.20;;;;;;;;;;5033832;28;20045;-72
2021/01/21 00:20:09;;;;;;;99.63;52.30;;;;;;;;;;5033861;28;20029;-71
2021/01/21 00:22:35;;;;;;;92.55;46.40;;;;;;;;;;5032696;28;20025;-71
2021/01/21 00:25:00;;;;;;;89.57;47.38;;;;;;;;;;5033764;28;20029;-72
2021/01/21 00:27:26;;;;;;;104.88;54.97;;;;;;;;;;5033817;28;20013;-72
2021/01/21 00:29:52;;;;;;;98.95;51.05;;;;;;;;;;5033725;28;20029;-71
2021/01/21 00:32:17;;;;;;;94.15;47.92;;;;;;;;;;5033964;28;20017;-71
2021/01/21 00:34:43;;;;;;;85.85;45.72;;;;;;;;;;5033556;28;20078;-72
2021/01/21 00:37:08;;;;;;;56.17;29.75;;;;;;;;;;5033585;28;20100;-71
2021/01/21 00:39:34;;;;;;;65.65;31.48;;;;;;;;;;5033571;28;20034;-70
2021/01/21 00:41:59;;;;;;;66.53;34.83;;;;;;;;;;5033554;28;20032;-72
2021/01/21 00:44:25;;;;;;;76.53;39.10;;;;;;;;;;5033351;28;20030;-72
2021/01/21 00:46:50;;;;;;;77.80;38.03;;;;;;;;;;5033437;28;20104;-72
2021/01/21 00:49:17;;;;;;;62.35;32.63;;;;;;;;;;5033437;28;20026;-71
2021/01/21 00:51:42;;;;;;;59.45;31.95;;;;;;;;;;5033392;28;20017;-71
2021/01/21 00:54:08;;;;;;;61.80;32.45;;;;;;;;;;5033289;28;20083;-71
2021/01/21 00:56:36;;;;;;;64.60;31.92;;;;;;;;;;5032206;28;20387;-71
2021/01/21 00:59:02;;;;;;;69.80;34.70;;;;;;;;;;5033223;28;20040;-71
2021/01/21 01:01:28;;;;;;;67.13;34.30;;;;;;;;;;5033269;28;20021;-71
2021/01/21 01:03:55;;;;;;;67.50;32.92;;;;;;;;;;5031894;28;20042;-72
2021/01/21 01:06:21;;;;;;;65.90;33.03;;;;;;;;;;5032121;28;20029;-71
2021/01/21 01:08:56;;;;;;;68.43;34.90;;;;;;;;;;5048678;28;20038;-71
2021/01/21 01:11:22;;;;;;;68.00;35.33;;;;;;;;;;5032100;28;20064;-72
2021/01/21 01:13:48;;;;;;;66.72;34.10;;;;;;;;;;5036594;28;20057;-72
2021/01/21 01:16:13;;;;;;;67.15;33.63;;;;;;;;;;5037569;28;20033;-71
2021/01/21 01:18:47;;;;;;;52.00;27.67;;;;;;;;;;5037423;28;20079;-71
2021/01/21 01:21:13;;;;;;;53.58;28.38;;;;;;;;;;5036317;28;20025;-71
2021/01/21 01:23:39;;;;;;;50.47;26.98;;;;;;;;;;5037142;28;20033;-71
2021/01/21 01:26:04;;;;;;;60.55;31.88;;;;;;;;;;5037011;28;20033;-71
2021/01/21 01:28:30;;;;;;;73.25;36.58;;;;;;;;;;5036131;28;20023;-72
2021/01/21 01:30:56;;;;;;;60.42;31.75;;;;;;;;;;5036106;28;20049;-72
2021/01/21 01:33:22;;;;;;;77.00;37.60;;;;;;;;;;5019428;28;20376;-71
2021/01/21 01:35:47;;;;;;;65.20;31.55;;;;;;;;;;5018915;28;20044;-71
2021/01/21 01:38:13;;;;;;;57.67;29.60;;;;;;;;;;5035726;28;20022;-71
2021/01/21 01:40:40;;;;;;;65.03;34.33;;;;;;;;;;5035597;28;20108;-71
2021/01/21 01:43:07;;;;;;;69.35;33.83;;;;;;;;;;5035736;28;20021;-72
2021/01/21 01:45:33;;;;;;;66.50;31.90;;;;;;;;;;5036696;28;20032;-71
2021/01/21 01:48:02;;;;;;;61.78;30.40;;;;;;;;;;5036743;28;20439;-71
2021/01/21 01:50:40;;;;;;;57.25;29.65;;;;;;;;;;5035534;28;20544;-72
2021/01/21 01:53:06;;;;;;;58.38;28.77;;;;;;;;;;5035440;28;20124;-72
2021/01/21 01:55:32;;;;;;;70.97;33.47;;;;;;;;;;5035329;28;20022;-72
2021/01/21 01:58:12;;;;;;;78.22;36.58;;;;;;;;;;5035539;28;20037;-72
2021/01/21 02:00:44;;;;;;;83.13;39.25;;;;;;;;;;5035554;28;20060;-72
2021/01/21 02:03:10;;;;;;;87.35;39.75;;;;;;;;;;5036396;28;20084;-72
2021/01/21 02:05:42;;;;;;;85.55;40.10;;;;;;;;;;5035340;28;20108;-72
2021/01/21 02:08:08;;;;;;;73.82;35.63;;;;;;;;;;5034619;28;20469;-72
2021/01/21 02:10:33;;;;;;;47.83;25.23;;;;;;;;;;5035337;28;20057;-72
2021/01/21 02:13:18;;;;;;;50.75;23.63;;;;;;;;;;5035080;28;20435;-72
2021/01/21 02:16:06;;;;;;;46.80;22.27;;;;;;;;;;5035038;28;20029;-72
2021/01/21 02:18:38;;;;;;;47.53;24.67;;;;;;;;;;5035035;28;20464;-72
2021/01/21 02:21:20;;;;;;;49.88;24.23;;;;;;;;;;5034694;28;20033;-71
2021/01/21 02:23:52;;;;;;;49.55;23.17;;;;;;;;;;5033894;28;20041;-70
2021/01/21 02:26:23;;;;;;;40.60;20.98;;;;;;;;;;5034449;28;20024;-70
2021/01/21 02:28:51;;;;;;;51.60;24.60;;;;;;;;;;5036047;28;20037;-70
2021/01/21 02:31:27;;;;;;;52.83;26.10;;;;;;;;;;5018434;28;20065;-70
2021/01/21 02:34:03;;;;;;;66.78;30.65;;;;;;;;;;5036001;28;20029;-71
2021/01/21 02:36:32;;;;;;;64.40;31.00;;;;;;;;;;5034585;28;20036;-70
2021/01/21 02:39:01;;;;;;;58.40;30.33;;;;;;;;;;5034703;28;20025;-71
2021/01/21 02:41:27;;;;;;;53.13;27.75;;;;;;;;;;5035962;28;20025;-71
2021/01/21 02:43:54;;;;;;;55.25;27.73;;;;;;;;;;5034169;28;20064;-71
2021/01/21 02:46:22;;;;;;;40.58;21.90;;;;;;;;;;5034565;28;20083;-72
2021/01/21 02:48:51;;;;;;;44.03;23.75;;;;;;;;;;5034324;28;20021;-71
2021/01/21 02:51:38;;;;;;;38.47;22.17;;;;;;;;;;5035576;28;20029;-72
2021/01/21 02:54:13;;;;;;;41.33;21.50;;;;;;;;;;5017900;28;20492;-72
2021/01/21 02:56:40;;;;;;;39.70;21.50;;;;;;;;;;5034197;28;20088;-71
2021/01/21 02:59:07;;;;;;;42.58;21.77;;;;;;;;;;5034467;28;20120;-71
2021/01/21 03:01:35;;;;;;;43.40;21.65;;;;;;;;;;5034185;28;20040;-72
2021/01/21 03:04:08;;;;;;;34.25;19.38;;;;;;;;;;5035502;28;20018;-71
2021/01/21 03:06:43;;;;;;;36.58;19.98;;;;;;;;;;5035465;28;20036;-71
2021/01/21 03:09:25;;;;;;;40.85;21.88;;;;;;;;;;5034805;28;20056;-67
2021/01/21 03:11:51;;;;;;;37.20;18.98;;;;;;;;;;5035413;28;20356;-71
2021/01/21 03:14:17;;;;;;;38.90;20.55;;;;;;;;;;5034007;28;20499;-71
2021/01/21 03:16:45;;;;;;;34.35;19.52;;;;;;;;;;5033953;28;20034;-71
2021/01/21 03:19:12;;;;;;;34.70;18.92;;;;;;;;;;5033683;28;20029;-71
2021/01/21 03:21:38;;;;;;;43.08;24.50;;;;;;;;;;5033856;28;20042;-72
2021/01/21 03:24:10;;;;;;;44.10;23.88;;;;;;;;;;5033745;28;20021;-71
2021/01/21 03:26:46;;;;;;;39.97;20.92;;;;;;;;;;5033286;28;20475;-71
2021/01/21 03:29:17;;;;;;;42.10;21.92;;;;;;;;;;5033800;28;20441;-71
2021/01/21 03:31:43;;;;;;;39.60;20.48;;;;;;;;;;5017307;28;20083;-72
2021/01/21 03:34:10;;;;;;;35.13;19.63;;;;;;;;;;5033478;28;20443;-72
2021/01/21 03:36:49;;;;;;;42.45;20.50;;;;;;;;;;5032564;28;20025;-72
2021/01/21 03:39:15;;;;;;;36.47;20.73;;;;;;;;;;5033451;28;20025;-71
2021/01/21 03:42:05;;;;;;;39.33;22.13;;;;;;;;;;5033741;28;20021;-71
2021/01/21 03:44:57;;;;;;;37.53;19.80;;;;;;;;;;5033310;28;20400;-71
2021/01/21 03:47:23;;;;;;;36.30;20.30;;;;;;;;;;5033096;28;20033;-71
2021/01/21 03:49:57;;;;;;;31.92;17.48;;;;;;;;;;5017842;28;20022;-72
2021/01/21 03:52:25;;;;;;;33.88;18.45;;;;;;;;;;5033306;28;20125;-72
2021/01/21 03:54:59;;;;;;;34.28;18.83;;;;;;;;;;5017705;28;20021;-71
2021/01/21 03:57:25;;;;;;;40.92;19.65;;;;;;;;;;5032795;28;20373;-71
2021/01/21 04:00:00;;;;;;;44.95;20.83;;;;;;;;;;5033174;28;20024;-72
2021/01/21 04:02:25;;;;;;;36.80;19.75;;;;;;;;;;5032978;28;20026;-71
2021/01/21 04:05:09;;;;;;;36.03;20.13;;;;;;;;;;5033016;28;20499;-71
2021/01/21 04:07:35;;;;;;;37.30;20.40;;;;;;;;;;5033881;28;20049;-71
2021/01/21 04:10:00;;;;;;;40.45;20.38;;;;;;;;;;5033238;28;20480;-71
2021/01/21 04:12:40;;;;;;;41.42;22.60;;;;;;;;;;5033340;28;20060;-70
2021/01/21 04:15:06;;;;;;;34.70;19.65;;;;;;;;;;5032713;28;20055;-70
2021/01/21 04:17:32;;;;;;;37.08;20.63;;;;;;;;;;5034022;28;20155;-70
2021/01/21 04:19:57;;;;;;;51.67;25.90;;;;;;;;;;5032537;28;20048;-70
2021/01/21 04:22:23;;;;;;;49.33;24.52;;;;;;;;;;5032471;28;20079;-71
2021/01/21 04:24:49;;;;;;;45.83;24.45;;;;;;;;;;5032325;28;20415;-70
2021/01/21 04:27:24;;;;;;;42.67;24.67;;;;;;;;;;5032517;28;20025;-70
2021/01/21 04:29:51;;;;;;;50.42;26.50;;;;;;;;;;5032515;28;20037;-71
2021/01/21 04:32:18;;;;;;;45.60;25.88;;;;;;;;;;5032384;28;20026;-72
2021/01/21 04:34:44;;;;;;;48.45;22.67;;;;;;;;;;5032313;28;20092;-71
2021/01/21 04:37:10;;;;;;;40.85;22.85;;;;;;;;;;5032662;28;20420;-71
2021/01/21 04:39:55;;;;;;;39.05;19.75;;;;;;;;;;5033996;28;20040;-72
2021/01/21 04:42:24;;;;;;;40.38;21.10;;;;;;;;;;5032320;28;20057;-71
2021/01/21 04:44:50;;;;;;;35.90;20.20;;;;;;;;;;5032270;28;20116;-71
2021/01/21 04:47:24;;;;;;;46.70;22.80;;;;;;;;;;5032007;28;20499;-70
2021/01/21 04:50:10;;;;;;;46.70;22.60;;;;;;;;;;5022123;28;20033;-72
2021/01/21 04:52:46;;;;;;;38.03;20.25;;;;;;;;;;5032448;28;20423;-71
2021/01/21 04:55:16;;;;;;;36.10;19.10;;;;;;;;;;5032401;28;20033;-71
2021/01/21 04:58:05;;;;;;;31.88;17.70;;;;;;;;;;5033385;28;20044;-71
2021/01/21 05:00:31;;;;;;;31.85;17.55;;;;;;;;;;5032209;28;20037;-71
2021/01/21 05:02:59;;;;;;;33.28;18.10;;;;;;;;;;5032000;28;20030;-71
2021/01/21 05:05:54;;;;;;;40.33;20.45;;;;;;;;;;5014089;28;20138;-71
2021/01/21 05:08:20;;;;;;;41.45;20.80;;;;;;;;;;5033410;28;20045;-68
2021/01/21 05:11:06;;;;;;;40.47;21.13;;;;;;;;;;5033416;28;20064;-68
2021/01/21 05:13:50;;;;;;;34.33;16.75;;;;;;;;;;5032363;28;20112;-68
2021/01/21 05:16:34;;;;;;;27.77;16.15;;;;;;;;;;5032923;28;20088;-68
2021/01/21 05:19:18;;;;;;;33.30;17.42;;;;;;;;;;5032265;28;20034;-68
2021/01/21 05:22:02;;;;;;;30.98;16.63;;;;;;;;;;5032474;28;20040;-68
2021/01/21 05:24:55;;;;;;;30.92;16.50;;;;;;;;;;5031983;28;20061;-68
2021/01/21 05:27:36;;;;;;;32.40;16.80;;;;;;;;;;5031906;28;20079;-68
2021/01/21 05:30:09;;;;;;;39.80;19.65;;;;;;;;;;5031817;28;20041;-68
2021/01/21 05:32:35;;;;;;;51.58;29.27;;;;;;;;;;5032993;28;20032;-69
2021/01/21 05:35:22;;;;;;;40.28;21.45;;;;;;;;;;5032742;28;20033;-69
2021/01/21 05:37:55;;;;;;;35.92;20.70;;;;;;;;;;5031949;28;20029;-69
2021/01/21 05:40:50;;;;;;;35.38;18.63;;;;;;;;;;5013905;28;20037;-69
2021/01/21 05:43:46;;;;;;;33.40;18.35;;;;;;;;;;5033018;28;20029;-69
2021/01/21 05:46:19;;;;;;;35.45;18.58;;;;;;;;;;5031746;28;20033;-69
2021/01/21 05:48:47;;;;;;;31.75;17.58;;;;;;;;;;5031492;28;20121;-71
2021/01/21 05:51:13;;;;;;;35.85;19.77;;;;;;;;;;5031594;28;20022;-69
2021/01/21 05:53:39;;;;;;;37.42;20.25;;;;;;;;;;5031791;28;20075;-69
2021/01/21 05:56:11;;;;;;;51.28;25.45;;;;;;;;;;5031647;28;20032;-69
2021/01/21 05:59:10;;;;;;;34.70;17.70;;;;;;;;;;5033056;28;20060;-69
2021/01/21 06:01:40;;;;;;;37.17;19.38;;;;;;;;;;5035171;28;20026;-70
2021/01/21 06:04:10;;;;;;;32.60;17.50;;;;;;;;;;5035313;28;20125;-70
2021/01/21 06:06:41;;;;;;;25.17;14.90;;;;;;;;;;5035250;28;20029;-69
2021/01/21 06:09:09;;;;;;;30.30;15.70;;;;;;;;;;5035755;28;20048;-68
2021/01/21 06:11:39;;;;;;;27.27;14.82;;;;;;;;;;5036397;28;20087;-68
2021/01/21 06:14:05;;;;;;;28.87;17.13;;;;;;;;;;5036229;28;20064;-68
2021/01/21 06:16:31;;;;;;;28.35;16.92;;;;;;;;;;5035896;28;20300;-68
2021/01/21 06:19:05;;;;;;;30.92;18.30;;;;;;;;;;5035763;28;20076;-68
2021/01/21 06:21:38;;;;;;;27.20;15.55;;;;;;;;;;5034605;28;20040;-68
2021/01/21 06:24:18;;;;;;;30.88;16.30;;;;;;;;;;5034192;28;20044;-69
2021/01/21 06:26:58;;;;;;;35.72;21.73;;;;;;;;;;5033804;28;20148;-68
2021/01/21 06:29:26;;;;;;;69.57;41.80;;;;;;;;;;5035192;28;20068;-68
2021/01/21 06:31:51;;;;;;;47.83;27.75;;;;;;;;;;5035391;28;20017;-69
2021/01/21 06:34:22;;;;;;;46.63;28.10;;;;;;;;;;5035411;28;20123;-68
2021/01/21 06:36:52;;;;;;;55.42;30.95;;;;;;;;;;5034630;28;20486;-68
2021/01/21 06:39:21;;;;;;;55.10;31.02;;;;;;;;;;5035736;28;20029;-72
2021/01/21 06:41:47;;;;;;;68.45;39.97;;;;;;;;;;5035638;28;20017;-71
2021/01/21 06:44:15;;;;;;;52.78;29.05;;;;;;;;;;5035512;28;20065;-71
2021/01/21 06:46:41;;;;;;;45.88;26.90;;;;;;;;;;5035779;28;20017;-71
2021/01/21 06:49:07;;;;;;;74.10;45.80;;;;;;;;;;5034114;28;20033;-72
2021/01/21 06:51:33;;;;;;;41.17;24.35;;;;;;;;;;5034547;28;20021;-71
2021/01/21 06:53:58;;;;;;;39.97;22.73;;;;;;;;;;5035400;28;20037;-71
2021/01/21 06:56:31;;;;;;;32.92;18.80;;;;;;;;;;5034385;28;20021;-71
2021/01/21 06:58:56;;;;;;;31.15;19.77;;;;;;;;;;5035385;28;20064;-72
2021/01/21 07:01:31;;;;;;;27.45;15.20;;;;;;;;;;5035436;28;20460;-72
2021/01/21 07:03:57;;;;;;;29.60;16.15;;;;;;;;;;5035392;28;20029;-70
2021/01/21 07:06:22;;;;;;;41.22;23.33;;;;;;;;;;5035418;28;20045;-71
2021/01/21 07:09:08;;;;;;;42.08;25.17;;;;;;;;;;5033481;28;20088;-71
2021/01/21 07:11:34;;;;;;;34.50;19.98;;;;;;;;;;5035327;28;20087;-71
2021/01/21 07:14:00;;;;;;;43.22;25.38;;;;;;;;;;5033142;28;20488;-68
2021/01/21 07:16:28;;;;;;;51.72;31.23;;;;;;;;;;5033136;28;20041;-72
2021/01/21 07:18:55;;;;;;;35.33;22.02;;;;;;;;;;5034947;28;20022;-72
2021/01/21 07:21:24;;;;;;;46.22;27.35;;;;;;;;;;5034597;28;20489;-71
2021/01/21 07:23:52;;;;;;;91.47;46.13;;;;;;;;;;5033258;28;20498;-72
2021/01/21 07:26:27;;;;;;;60.95;32.67;;;;;;;;;;5030586;28;20128;-72
2021/01/21 07:29:00;;;;;;;57.20;32.45;;;;;;;;;;5034392;28;20079;-71
2021/01/21 07:31:25;;;;;;;57.65;31.77;;;;;;;;;;5031930;28;20028;-71
2021/01/21 07:34:09;;;;;;;48.50;27.73;;;;;;;;;;5034538;28;20022;-71
2021/01/21 07:36:35;;;;;;;47.10;26.10;;;;;;;;;;5034689;28;20036;-71
2021/01/21 07:39:00;;;;;;;45.47;25.35;;;;;;;;;;5034827;28;20360;-71
2021/01/21 07:41:49;;;;;;;45.58;25.10;;;;;;;;;;5034657;28;20479;-71
2021/01/21 07:44:15;;;;;;;41.03;21.80;;;;;;;;;;5031607;28;20033;-71
2021/01/21 07:46:41;;;;;;;54.58;27.00;;;;;;;;;;5031003;28;20345;-71
2021/01/21 07:49:24;;;;;;;61.50;30.63;;;;;;;;;;5031554;28;20021;-71
2021/01/21 07:52:04;;;;;;;69.93;36.58;;;;;;;;;;5033426;28;20057;-71
2021/01/21 07:54:30;;;;;;;75.15;39.63;;;;;;;;;;5033603;28;20044;-71
2021/01/21 07:56:55;;;;;;;66.03;35.83;;;;;;;;;;5033567;28;20022;-71
2021/01/21 07:59:21;;;;;;;56.50;32.58;;;;;;;;;;5033355;28;20119;-71
2021/01/21 08:01:59;;;;;;;56.38;33.60;;;;;;;;;;5033300;28;20021;-71
2021/01/21 08:04:25;;;;;;;58.60;32.97;;;;;;;;;;5033568;28;20038;-71
2021/01/21 08:06:54;;;;;;;61.42;35.85;;;;;;;;;;5033429;28;20426;-71
2021/01/21 08:09:21;;;;;;;78.55;40.83;;;;;;;;;;5033549;28;20042;-71
2021/01/21 08:11:47;;;;;;;75.78;41.35;;;;;;;;;;5033794;28;20107;-71
2021/01/21 08:14:13;;;;;;;83.30;43.15;;;;;;;;;;5033634;28;20029;-71
2021/01/21 08:16:38;;;;;;;80.68;41.80;;;;;;;;;;5032390;28;20028;-71
2021/01/21 08:19:05;;;;;;;79.32;41.47;;;;;;;;;;5032359;28;20037;-70
2021/01/21 08:21:31;;;;;;;95.30;48.42;;;;;;;;;;5033270;28;20058;-71
2021/01/21 08:23:58;;;;;;;89.22;45.42;;;;;;;;;;5033230;28;20108;-70
2021/01/21 08:26:25;;;;;;;88.13;47.13;;;;;;;;;;5033430;28;20476;-70
2021/01/21 08:28:50;;;;;;;102.70;51.95;;;;;;;;;;5033351;28;20029;-70
2021/01/21 08:31:16;;;;;;;144.30;73.43;;;;;;;;;;5033316;28;20504;-70
2021/01/21 08:33:42;;;;;;;142.65;70.70;;;;;;;;;;5033256;28;20108;-71
2021/01/21 08:36:08;;;;;;;172.48;83.05;;;;;;;;;;5033424;28;20022;-70
2021/01/21 08:38:36;;;;;;;165.82;79.03;;;;;;;;;;5033411;28;20021;-71
2021/01/21 08:41:02;;;;;;;177.93;87.82;;;;;;;;;;5033280;28;20379;-70
2021/01/21 08:43:29;;;;;;;202.43;92.97;;;;;;;;;;5031903;28;20473;-70
2021/01/21 08:45:55;;;;;;;188.90;87.95;;;;;;;;;;5033130;28;20017;-70
2021/01/21 08:48:27;;;;;;;162.38;78.40;;;;;;;;;;5033202;28;20029;-71
2021/01/21 08:50:53;;;;;;;125.22;57.15;;;;;;;;;;5033169;28;20518;-70
2021/01/21 08:53:22;;;;;;;107.82;48.22;;;;;;;;;;5032234;28;20105;-71
2021/01/21 08:55:52;;;;;;;66.75;32.28;;;;;;;;;;5031797;28;20025;-71
2021/01/21 08:58:18;;;;;;;62.75;31.35;;;;;;;;;;5029869;28;20732;-70
2021/01/21 09:01:03;;;;;;;74.28;37.65;;;;;;;;;;5028619;28;20030;-68
2021/01/21 09:03:53;;;;;;;72.43;38.78;;;;;;;;;;5029451;28;20033;-70
2021/01/21 09:06:19;;;;;;;63.17;30.80;;;;;;;;;;5033309;28;20083;-68
2021/01/21 09:08:46;;;;;;;64.38;33.60;;;;;;;;;;5032734;28;20124;-68
2021/01/21 09:11:31;;;;;;;48.08;28.17;;;;;;;;;;5033055;28;20034;-68
2021/01/21 09:13:58;;;;;;;48.72;25.77;;;;;;;;;;5030635;28;20025;-68
2021/01/21 09:16:59;;;;;;;56.40;31.35;;;;;;;;;;5032667;28;20112;-68
2021/01/21 09:19:27;;;;;;;70.70;37.75;;;;;;;;;;5011218;28;20125;-70
2021/01/21 09:22:02;;;;;;;95.13;50.35;;;;;;;;;;5013143;28;20046;-68
2021/01/21 09:24:28;;;;;;;111.88;55.58;;;;;;;;;;5027020;28;20040;-68
2021/01/21 09:27:13;;;;;;;120.32;66.07;;;;;;;;;;5030542;28;20488;-68
2021/01/21 09:29:48;;;;;;;136.45;71.53;;;;;;;;;;5024092;28;20032;-70
2021/01/21 09:32:21;;;;;;;119.93;60.70;;;;;;;;;;5031273;28;20026;-70
2021/01/21 09:35:04;;;;;;;100.38;52.83;;;;;;;;;;5036195;28;20480;-70
2021/01/21 09:37:31;;;;;;;94.75;46.78;;;;;;;;;;5036727;28;20033;-70
2021/01/21 09:39:56;;;;;;;73.75;39.63;;;;;;;;;;5036561;28;20029;-73
2021/01/21 09:42:22;;;;;;;78.35;37.95;;;;;;;;;;5035823;28;20038;-71
2021/01/21 09:44:47;;;;;;;73.85;37.83;;;;;;;;;;5034985;28;20025;-70
2021/01/21 09:47:13;;;;;;;62.63;31.95;;;;;;;;;;5036877;28;20028;-70
2021/01/21 09:49:42;;;;;;;136.85;60.03;;;;;;;;;;5036776;28;20018;-70
2021/01/21 09:52:08;;;;;;;161.45;70.38;;;;;;;;;;5035868;28;20021;-71
2021/01/21 09:54:33;;;;;;;99.30;48.53;;;;;;;;;;5034264;28;20464;-71
2021/01/21 09:56:59;;;;;;;67.97;36.72;;;;;;;;;;5035721;28;20029;-71
2021/01/21 09:59:24;;;;;;;62.15;36.13;;;;;;;;;;5036138;28;20067;-71
2021/01/21 10:01:50;;;;;;;70.07;38.47;;;;;;;;;;5034717;28;20148;-71
2021/01/21 10:04:15;;;;;;;94.53;48.63;;;;;;;;;;5035600;28;20029;-68
2021/01/21 10:06:42;;;;;;;90.57;49.47;;;;;;;;;;5035793;28;20384;-68
2021/01/21 10:09:07;;;;;;;77.90;41.50;;;;;;;;;;5033833;28;20381;-68
2021/01/21 10:11:33;;;;;;;45.53;23.85;;;;;;;;;;5036134;28;20087;-67
2021/01/21 10:13:59;;;;;;;48.97;26.60;;;;;;;;;;5035236;28;20088;-68
2021/01/21 10:16:24;;;;;;;52.20;26.52;;;;;;;;;;5034297;28;20044;-68
2021/01/21 10:18:51;;;;;;;49.40;25.95;;;;;;;;;;5033165;28;20057;-68
2021/01/21 10:21:16;;;;;;;43.92;24.70;;;;;;;;;;5034667;28;20461;-68
2021/01/21 10:23:42;;;;;;;47.67;25.02;;;;;;;;;;5018405;28;20029;-68
2021/01/21 10:26:07;;;;;;;36.38;18.10;;;;;;;;;;5032180;28;20029;-68
2021/01/21 10:28:33;;;;;;;50.38;27.02;;;;;;;;;;5035891;28;20452;-68
2021/01/21 10:30:58;;;;;;;48.08;22.13;;;;;;;;;;5034646;28;20082;-68
2021/01/21 10:33:24;;;;;;;39.97;19.88;;;;;;;;;;5035858;28;20018;-68
2021/01/21 10:35:49;;;;;;;31.63;18.40;;;;;;;;;;5035761;28;20025;-68
2021/01/21 10:38:15;;;;;;;35.97;19.27;;;;;;;;;;5035740;28;20375;-68
2021/01/21 10:40:40;;;;;;;27.88;16.10;;;;;;;;;;5035707;28;20033;-68
2021/01/21 10:43:06;;;;;;;25.40;14.70;;;;;;;;;;5035647;28;20025;-68
2021/01/21 10:45:32;;;;;;;24.55;14.23;;;;;;;;;;5034993;28;20379;-67
2021/01/21 10:47:57;;;;;;;23.42;13.32;;;;;;;;;;5033803;28;20017;-67
2021/01/21 10:50:25;;;;;;;22.30;13.10;;;;;;;;;;5032530;28;20037;-67
2021/01/21 10:52:52;;;;;;;19.98;12.25;;;;;;;;;;5032301;28;20028;-72
2021/01/21 10:55:19;;;;;;;19.27;11.38;;;;;;;;;;5033746;28;20038;-71
2021/01/21 10:57:44;;;;;;;17.95;10.73;;;;;;;;;;5035369;28;20020;-68
2021/01/21 11:00:10;;;;;;;17.58;10.95;;;;;;;;;;5030785;28;20116;-68
2021/01/21 11:02:36;;;;;;;17.77;11.15;;;;;;;;;;5035380;28;20109;-68
2021/01/21 11:05:02;;;;;;;18.20;10.60;;;;;;;;;;5035244;28;20033;-68
2021/01/21 11:07:28;;;;;;;15.88;9.65;;;;;;;;;;5035546;28;20009;-68
2021/01/21 11:09:53;;;;;;;17.25;10.57;;;;;;;;;;5035179;28;20506;-68
2021/01/21 11:12:19;;;;;;;18.40;10.43;;;;;;;;;;5035032;28;20108;-68
2021/01/21 11:14:47;;;;;;;17.20;9.50;;;;;;;;;;5034952;28;20040;-68
2021/01/21 11:17:14;;;;;;;16.75;10.25;;;;;;;;;;5033034;28;20075;-68
2021/01/21 11:19:39;;;;;;;22.23;12.45;;;;;;;;;;5034183;28;20087;-68
2021/01/21 11:22:05;;;;;;;21.95;12.45;;;;;;;;;;5034990;28;20503;-68
2021/01/21 11:24:30;;;;;;;20.65;11.35;;;;;;;;;;5033403;28;20033;-67
2021/01/21 11:26:56;;;;;;;25.10;12.70;;;;;;;;;;5033995;28;20013;-67
2021/01/21 11:29:24;;;;;;;24.42;12.88;;;;;;;;;;5033161;28;20519;-67
2021/01/21 11:31:50;;;;;;;19.10;10.68;;;;;;;;;;5033453;28;20017;-67
2021/01/21 11:34:15;;;;;;;18.17;10.65;;;;;;;;;;5033298;28;20037;-67
2021/01/21 11:36:41;;;;;;;19.70;10.68;;;;;;;;;;5034482;28;20022;-67
2021/01/21 11:39:08;;;;;;;16.25;9.10;;;;;;;;;;5033170;28;20021;-67
2021/01/21 11:41:33;;;;;;;25.33;13.35;;;;;;;;;;5032670;28;20029;-67
2021/01/21 11:43:59;;;;;;;20.65;11.77;;;;;;;;;;5042951;28;20488;-67
2021/01/21 11:46:24;;;;;;;22.80;12.05;;;;;;;;;;5034313;28;20104;-67
2021/01/21 11:48:52;;;;;;;21.00;11.77;;;;;;;;;;5033689;28;20076;-67
2021/01/21 11:51:18;;;;;;;19.17;11.55;;;;;;;;;;5034046;28;20053;-72
2021/01/21 11:53:44;;;;;;;20.38;11.02;;;;;;;;;;5033744;28;20116;-72
2021/01/21 11:56:09;;;;;;;20.02;11.57;;;;;;;;;;5033891;28;20100;-71
2021/01/21 11:58:35;;;;;;;18.75;11.30;;;;;;;;;;5032703;28;20494;-72
2021/01/21 12:01:01;;;;;;;18.55;10.20;;;;;;;;;;5034016;28;20013;-71
2021/01/21 12:03:27;;;;;;;16.20;9.40;;;;;;;;;;5033147;28;20048;-71
2021/01/21 12:05:52;;;;;;;16.48;9.13;;;;;;;;;;5033826;28;20061;-67
2021/01/21 12:08:18;;;;;;;19.55;10.32;;;;;;;;;;5033657;28;20067;-67
2021/01/21 12:10:43;;;;;;;15.00;9.07;;;;;;;;;;5033975;28;20123;-67
2021/01/21 12:13:09;;;;;;;18.58;9.55;;;;;;;;;;5032037;28;20066;-67
2021/01/21 12:15:34;;;;;;;12.70;8.98;;;;;;;;;;5032673;28;20476;-67
2021/01/21 12:18:00;;;;;;;13.95;8.80;;;;;;;;;;5032617;28;20472;-67
2021/01/21 12:20:26;;;;;;;14.93;8.88;;;;;;;;;;5033741;28;20053;-67
2021/01/21 12:22:52;;;;;;;16.38;9.80;;;;;;;;;;5033927;28;20034;-67
2021/01/21 12:25:18;;;;;;;18.88;9.82;;;;;;;;;;5032288;28;20022;-69
2021/01/21 12:27:43;;;;;;;15.90;9.35;;;;;;;;;;5033727;28;20021;-67
2021/01/21 12:30:09;;;;;;;15.27;8.40;;;;;;;;;;5033868;28;20048;-67
2021/01/21 12:32:34;;;;;;;14.00;8.70;;;;;;;;;;5034072;28;20033;-67
2021/01/21 12:35:00;;;;;;;12.50;7.60;;;;;;;;;;5032686;28;20025;-67
2021/01/21 12:37:28;;;;;;;12.73;8.27;;;;;;;;;;5033531;28;20029;-67
2021/01/21 12:39:54;;;;;;;13.52;8.00;;;;;;;;;;5033793;28;20036;-67
2021/01/21 12:42:19;;;;;;;12.70;7.90;;;;;;;;;;5032444;28;20030;-67
2021/01/21 12:44:45;;;;;;;14.98;7.97;;;;;;;;;;5032664;28;20029;-67
2021/01/21 12:47:11;;;;;;;16.88;7.35;;;;;;;;;;5032333;28;20017;-72
2021/01/21 12:49:37;;;;;;;15.80;8.05;;;;;;;;;;5031790;28;20026;-72
2021/01/21 12:52:04;;;;;;;9.60;5.82;;;;;;;;;;5033182;28;20023;-72
2021/01/21 12:54:29;;;;;;;10.50;5.97;;;;;;;;;;5032391;28;20383;-72
2021/01/21 12:56:59;;;;;;;12.00;7.65;;;;;;;;;;5032731;28;20041;-72
2021/01/21 12:59:25;;;;;;;13.15;7.68;;;;;;;;;;5032027;28;20059;-72
2021/01/21 13:01:51;;;;;;;7.82;5.75;;;;;;;;;;5033330;28;20017;-67
2021/01/21 13:04:16;;;;;;;7.07;4.93;;;;;;;;;;5032137;28;20030;-67
2021/01/21 13:06:42;;;;;;;8.15;5.05;;;;;;;;;;5033177;28;20380;-67
2021/01/21 13:09:08;;;;;;;9.02;5.10;;;;;;;;;;5036619;28;20038;-67
2021/01/21 13:11:34;;;;;;;5.75;4.75;;;;;;;;;;5038847;28;20033;-67
2021/01/21 13:13:59;;;;;;;9.38;5.15;;;;;;;;;;5039661;28;20034;-67
2021/01/21 13:16:25;;;;;;;8.05;4.57;;;;;;;;;;5040027;28;20025;-67
2021/01/21 13:18:51;;;;;;;6.60;4.82;;;;;;;;;;5039252;28;20033;-67
2021/01/21 13:21:19;;;;;;;7.28;4.97;;;;;;;;;;5039583;28;20025;-72
2021/01/21 13:23:46;;;;;;;6.75;4.10;;;;;;;;;;5039585;28;20079;-72
2021/01/21 13:26:11;;;;;;;5.95;4.15;;;;;;;;;;5039888;28;20503;-72
2021/01/21 13:28:36;;;;;;;6.60;4.45;;;;;;;;;;5039821;28;20117;-72
2021/01/21 13:31:02;;;;;;;8.02;4.75;;;;;;;;;;5039706;28;20022;-72
2021/01/21 13:33:28;;;;;;;7.88;4.88;;;;;;;;;;5039844;28;20034;-72
2021/01/21 13:35:53;;;;;;;6.72;4.82;;;;;;;;;;5039673;28;20483;-71
2021/01/21 13:38:29;;;;;;;7.97;5.13;;;;;;;;;;5037737;28;20092;-71
2021/01/21 13:40:57;;;;;;;31.42;11.88;;;;;;;;;;5038352;28;20514;-71
2021/01/21 13:43:22;;;;;;;51.40;19.40;;;;;;;;;;5039557;28;20063;-71
2021/01/21 13:45:48;;;;;;;7.88;5.38;;;;;;;;;;5039409;28;20029;-71
2021/01/21 13:48:13;;;;;;;7.75;4.93;;;;;;;;;;5039160;28;20026;-71
2021/01/21 13:50:39;;;;;;;7.47;4.82;;;;;;;;;;5038071;28;20476;-72
2021/01/21 13:53:04;;;;;;;6.35;4.72;;;;;;;;;;5037822;28;20018;-71
2021/01/21 13:55:30;;;;;;;8.25;4.82;;;;;;;;;;5039205;28;20029;-71
2021/01/21 13:57:55;;;;;;;7.28;4.82;;;;;;;;;;5039213;28;20021;-72
2021/01/21 14:00:21;;;;;;;7.13;4.57;;;;;;;;;;5039081;28;20036;-72
2021/01/21 14:02:46;;;;;;;6.95;4.40;;;;;;;;;;5039053;28;20108;-71
2021/01/21 14:05:12;;;;;;;6.10;4.47;;;;;;;;;;5039001;28;20495;-71
2021/01/21 14:07:37;;;;;;;7.32;4.55;;;;;;;;;;5039213;28;20032;-71
2021/01/21 14:10:04;;;;;;;8.73;5.03;;;;;;;;;;5039047;28;20073;-71
2021/01/21 14:12:29;;;;;;;5.88;4.55;;;;;;;;;;5039054;28;20022;-72
2021/01/21 14:14:55;;;;;;;13.82;7.90;;;;;;;;;;5039196;28;20483;-72
2021/01/21 14:17:20;;;;;;;9.93;5.82;;;;;;;;;;5039059;28;20045;-71
2021/01/21 14:19:48;;;;;;;16.35;8.73;;;;;;;;;;5036213;28;20459;-72
2021/01/21 14:22:13;;;;;;;21.08;12.13;;;;;;;;;;5035336;28;20553;-72
2021/01/21 14:24:39;;;;;;;14.88;8.75;;;;;;;;;;5035635;28;20029;-71
2021/01/21 14:27:05;;;;;;;11.32;6.22;;;;;;;;;;5035895;28;20013;-71
2021/01/21 14:29:31;;;;;;;12.95;6.32;;;;;;;;;;5036043;28;20026;-71